createdAt,value
2018-09-24T00:01:02.156Z,1.57
2018-09-24T00:03:29.432Z,1.43
2018-09-24T00:05:56.752Z,1.70
2018-09-24T00:08:24.547Z,1.30
2018-09-24T00:10:52.794Z,1.50
2018-09-24T00:13:20.589Z,1.60
2018-09-24T00:15:48.433Z,1.40
2018-09-24T00:21:12.652Z,1.07
2018-09-24T00:23:40.186Z,1.20
2018-09-24T00:26:07.658Z,1.50
2018-09-24T00:28:35.600Z,1.77
2018-09-24T00:31:02.868Z,2.03
2018-09-24T00:33:30.973Z,1.33
2018-09-24T00:35:58.317Z,1.63
2018-09-24T00:38:25.634Z,1.20
2018-09-24T00:40:52.946Z,1.77
2018-09-24T00:43:20.261Z,1.00
2018-09-24T00:45:47.559Z,1.70
2018-09-24T00:48:15.163Z,1.33
2018-09-24T00:50:42.470Z,1.50
2018-09-24T00:53:09.721Z,1.30
2018-09-24T00:55:37.024Z,1.00
2018-09-24T00:58:06.966Z,1.47
2018-09-24T01:00:34.959Z,1.83
2018-09-24T01:03:02.649Z,1.63
2018-09-24T01:05:29.977Z,1.70
2018-09-24T01:07:57.389Z,1.93
2018-09-24T01:10:24.646Z,1.37
2018-09-24T01:12:54.289Z,1.63
2018-09-24T01:15:21.850Z,1.80
2018-09-24T01:17:49.143Z,1.90
2018-09-24T01:20:16.408Z,1.87
2018-09-24T01:22:45.367Z,2.20
2018-09-24T01:25:12.780Z,1.97
2018-09-24T01:27:40.614Z,2.27
2018-09-24T01:30:08.014Z,1.93
2018-09-24T01:32:36.366Z,2.20
2018-09-24T01:35:03.736Z,2.03
2018-09-24T01:37:31.507Z,2.00
2018-09-24T01:39:58.880Z,1.90
2018-09-24T01:42:26.236Z,1.77
2018-09-24T01:44:53.489Z,2.80
2018-09-24T01:47:20.833Z,2.63
2018-09-24T01:49:48.116Z,4.13
2018-09-24T01:52:17.620Z,4.50
2018-09-24T01:54:44.913Z,3.50
2018-09-24T01:57:14.806Z,3.03
2018-09-24T01:59:47.419Z,4.10
2018-09-24T02:02:15.055Z,2.80
2018-09-24T02:04:42.590Z,2.07
2018-09-24T02:07:09.908Z,2.30
2018-09-24T02:09:37.217Z,2.37
2018-09-24T02:12:05.760Z,1.70
2018-09-24T02:14:33.072Z,1.90
2018-09-24T02:17:00.383Z,1.80
2018-09-24T02:19:27.810Z,3.67
2018-09-24T02:21:55.065Z,1.80
2018-09-24T02:24:22.355Z,1.77
2018-09-24T02:26:49.647Z,2.30
2018-09-24T02:29:17.618Z,2.33
2018-09-24T02:31:44.892Z,2.23
2018-09-24T02:34:12.470Z,1.80
2018-09-24T02:36:40.072Z,1.90
2018-09-24T02:39:08.429Z,1.70
2018-09-24T02:41:35.763Z,1.93
2018-09-24T02:44:03.028Z,2.20
2018-09-24T02:46:30.328Z,1.57
2018-09-24T02:49:01.556Z,1.50
2018-09-24T02:51:29.381Z,1.73
2018-09-24T02:53:56.618Z,2.20
2018-09-24T02:56:23.897Z,1.80
2018-09-24T02:58:51.147Z,1.97
2018-09-24T03:01:18.525Z,1.93
2018-09-24T03:03:46.046Z,1.60
2018-09-24T03:06:13.329Z,1.87
2018-09-24T03:08:40.837Z,1.70
2018-09-24T03:11:08.118Z,1.80
2018-09-24T03:13:35.701Z,1.90
2018-09-24T03:16:02.959Z,2.07
2018-09-24T03:18:30.230Z,1.87
2018-09-24T03:20:58.103Z,2.00
2018-09-24T03:23:26.397Z,1.67
2018-09-24T03:25:54.129Z,1.70
2018-09-24T03:28:21.385Z,1.80
2018-09-24T03:30:48.710Z,2.10
2018-09-24T03:33:16.077Z,2.43
2018-09-24T03:35:43.369Z,1.77
2018-09-24T03:38:10.682Z,1.90
2018-09-24T03:40:38.022Z,1.97
2018-09-24T03:43:05.951Z,1.50
2018-09-24T03:45:33.239Z,2.13
2018-09-24T03:48:00.511Z,1.90
2018-09-24T03:50:29.338Z,1.80
2018-09-24T03:52:56.634Z,1.90
2018-09-24T03:55:23.874Z,2.20
2018-09-24T03:57:52.253Z,1.80
2018-09-24T04:00:20.016Z,1.83
2018-09-24T04:02:48.221Z,1.73
2018-09-24T04:05:21.357Z,2.40
2018-09-24T04:07:54.307Z,1.83
2018-09-24T04:10:27.227Z,1.87
2018-09-24T04:13:00.216Z,1.93
2018-09-24T04:15:33.812Z,1.93
2018-09-24T04:18:06.890Z,1.70
2018-09-24T04:20:40.156Z,1.60
2018-09-24T04:23:13.181Z,2.23
2018-09-24T04:25:47.129Z,1.63
2018-09-24T04:28:20.292Z,2.20
2018-09-24T04:30:53.396Z,1.80
2018-09-24T04:33:26.501Z,2.00
2018-09-24T04:35:59.407Z,2.00
2018-09-24T04:38:32.435Z,2.00
2018-09-24T04:41:05.271Z,2.03
2018-09-24T04:43:38.373Z,1.80
2018-09-24T04:46:11.611Z,1.47
2018-09-24T04:48:45.290Z,1.97
2018-09-24T04:51:18.344Z,1.33
2018-09-24T04:53:51.936Z,1.87
2018-09-24T04:56:24.969Z,1.17
2018-09-24T04:59:02.264Z,1.40
2018-09-24T05:01:35.539Z,2.07
2018-09-24T05:04:08.637Z,1.70
2018-09-24T05:06:41.651Z,1.43
2018-09-24T05:09:14.845Z,1.40
2018-09-24T05:11:47.985Z,1.60
2018-09-24T05:14:21.534Z,1.23
2018-09-24T05:16:56.882Z,1.40
2018-09-24T05:19:33.013Z,1.50
2018-09-24T05:22:06.001Z,1.43
2018-09-24T05:24:41.324Z,1.83
2018-09-24T05:27:15.947Z,2.00
2018-09-24T05:29:48.932Z,2.33
2018-09-24T05:32:22.720Z,2.07
2018-09-24T05:34:58.299Z,1.90
2018-09-24T05:37:31.305Z,1.30
2018-09-24T05:40:05.232Z,1.43
2018-09-24T05:42:38.318Z,1.23
2018-09-24T05:45:11.992Z,2.17
2018-09-24T05:47:48.491Z,2.00
2018-09-24T05:50:21.703Z,1.90
2018-09-24T05:52:54.932Z,2.10
2018-09-24T05:55:28.178Z,2.13
2018-09-24T05:58:01.120Z,1.60
2018-09-24T06:00:34.211Z,1.60
2018-09-24T06:03:10.669Z,1.50
2018-09-24T06:05:45.741Z,1.30
2018-09-24T06:08:23.870Z,1.87
2018-09-24T06:10:58.539Z,1.30
2018-09-24T06:13:33.293Z,1.43
2018-09-24T06:16:06.706Z,2.00
2018-09-24T06:18:40.573Z,1.93
2018-09-24T06:21:16.069Z,1.43
2018-09-24T06:23:52.608Z,1.57
2018-09-24T06:26:27.367Z,1.50
2018-09-24T06:29:01.361Z,1.90
2018-09-24T06:31:34.891Z,1.43
2018-09-24T06:34:08.551Z,1.93
2018-09-24T06:36:42.177Z,1.67
2018-09-24T06:39:16.093Z,1.73
2018-09-24T06:41:49.130Z,1.53
2018-09-24T06:44:22.120Z,1.63
2018-09-24T06:46:55.230Z,1.57
2018-09-24T06:49:29.588Z,1.57
2018-09-24T06:52:02.794Z,1.73
2018-09-24T06:54:36.204Z,1.90
2018-09-24T06:57:09.365Z,1.40
2018-09-24T06:59:42.673Z,1.37
2018-09-24T07:02:15.701Z,1.30
2018-09-24T07:04:48.787Z,1.40
2018-09-24T07:07:21.933Z,1.90
2018-09-24T07:09:55.520Z,2.13
2018-09-24T07:12:28.773Z,1.67
2018-09-24T07:15:01.865Z,1.57
2018-09-24T07:17:35.415Z,1.30
2018-09-24T07:20:08.970Z,2.03
2018-09-24T07:22:42.360Z,3.00
2018-09-24T07:25:15.489Z,1.13
2018-09-24T07:27:50.345Z,1.53
2018-09-24T07:30:23.252Z,1.80
2018-09-24T07:32:56.410Z,1.23
2018-09-24T07:35:29.316Z,1.73
2018-09-24T07:40:42.244Z,1.60
2018-09-24T07:43:16.119Z,1.93
2018-09-24T07:45:53.249Z,1.60
2018-09-24T07:48:27.097Z,2.33
2018-09-24T07:51:00.430Z,1.20
2018-09-24T07:53:33.654Z,1.60
2018-09-24T07:56:07.553Z,1.40
2018-09-24T07:58:45.079Z,1.40
2018-09-24T08:01:19.512Z,1.40
2018-09-24T08:03:52.832Z,3.03
2018-09-24T08:06:27.312Z,2.33
2018-09-24T08:09:00.800Z,1.30
2018-09-24T08:11:44.768Z,1.53
2018-09-24T08:14:28.544Z,1.17
2018-09-24T08:17:12.399Z,1.27
2018-09-24T08:20:00.234Z,1.30
2018-09-24T08:22:33.182Z,1.90
2018-09-24T08:25:07.167Z,1.60
2018-09-24T08:27:41.693Z,1.50
2018-09-24T08:30:16.030Z,1.23
2018-09-24T08:32:49.285Z,1.60
2018-09-24T08:35:28.325Z,2.60
2018-09-24T08:38:01.580Z,1.20
2018-09-24T08:43:38.477Z,1.23
2018-09-24T08:46:11.455Z,1.60
2018-09-24T08:48:44.509Z,1.00
2018-09-24T08:51:17.496Z,1.03
2018-09-24T08:53:51.383Z,1.40
2018-09-24T08:56:26.596Z,1.00
2018-09-24T08:59:00.123Z,1.20
2018-09-24T09:01:33.166Z,1.30
2018-09-24T09:04:06.363Z,1.10
2018-09-24T09:06:39.606Z,1.13
2018-09-24T09:09:15.921Z,1.27
2018-09-24T09:11:49.886Z,1.37
2018-09-24T09:14:22.927Z,0.90
2018-09-24T09:17:00.598Z,0.97
2018-09-24T09:19:33.766Z,1.50
2018-09-24T09:22:13.507Z,1.50
2018-09-24T09:24:50.985Z,0.83
2018-09-24T09:27:25.585Z,1.10
2018-09-24T09:30:02.706Z,1.27
2018-09-24T09:32:35.900Z,1.93
2018-09-24T09:35:09.124Z,1.33
2018-09-24T09:37:42.185Z,1.23
2018-09-24T09:40:15.442Z,1.10
2018-09-24T09:42:51.723Z,1.53
2018-09-24T09:45:25.905Z,1.80
2018-09-24T09:48:02.193Z,2.17
2018-09-24T09:50:35.169Z,1.97
2018-09-24T09:53:10.361Z,1.50
2018-09-24T09:55:44.672Z,1.30
2018-09-24T09:58:19.490Z,1.40
2018-09-24T10:00:52.597Z,1.30
2018-09-24T10:03:26.213Z,1.20
2018-09-24T10:06:00.085Z,1.40
2018-09-24T10:08:41.402Z,1.23
2018-09-24T10:14:20.799Z,1.20
2018-09-24T10:16:55.671Z,1.10
2018-09-24T10:19:30.456Z,1.03
2018-09-24T10:22:03.568Z,1.10
2018-09-24T10:24:36.527Z,0.87
2018-09-24T10:27:09.737Z,1.60
2018-09-24T10:29:42.931Z,1.20
2018-09-24T10:32:16.257Z,1.30
2018-09-24T10:34:49.283Z,1.07
2018-09-24T10:37:22.382Z,1.33
2018-09-24T10:40:01.975Z,1.10
2018-09-24T10:42:35.192Z,1.80
2018-09-24T10:45:08.515Z,2.47
2018-09-24T10:47:41.738Z,1.63
2018-09-24T10:50:15.176Z,1.30
2018-09-24T10:52:49.015Z,1.27
2018-09-24T10:55:22.066Z,1.20
2018-09-24T10:57:55.128Z,1.10
2018-09-24T11:00:28.604Z,1.60
2018-09-24T11:03:01.521Z,1.00
2018-09-24T11:05:35.797Z,1.60
2018-09-24T11:08:09.213Z,1.30
2018-09-24T11:10:44.462Z,1.53
2018-09-24T11:13:17.622Z,1.03
2018-09-24T11:16:04.876Z,1.37
2018-09-24T11:18:38.576Z,1.33
2018-09-24T11:21:12.114Z,0.93
2018-09-24T11:23:45.668Z,1.00
2018-09-24T11:28:52.398Z,0.60
2018-09-24T11:31:25.761Z,1.60
2018-09-24T11:34:00.381Z,2.33
2018-09-24T11:36:33.783Z,1.27
2018-09-24T11:39:06.902Z,1.43
2018-09-24T11:41:40.453Z,1.23
2018-09-24T11:44:13.885Z,1.03
2018-09-24T11:46:47.176Z,1.20
2018-09-24T11:49:23.270Z,1.03
2018-09-24T11:51:57.440Z,1.13
2018-09-24T11:54:30.538Z,1.27
2018-09-24T11:57:03.630Z,0.90
2018-09-24T11:59:36.820Z,1.03
2018-09-24T12:02:10.760Z,1.00
2018-09-24T12:04:44.088Z,1.47
2018-09-24T12:07:17.123Z,1.07
2018-09-24T12:09:50.125Z,1.03
2018-09-24T12:12:23.388Z,0.90
2018-09-24T12:14:56.334Z,0.87
2018-09-24T12:17:29.449Z,1.17
2018-09-24T12:20:02.792Z,1.60
2018-09-24T12:22:35.811Z,1.00
2018-09-24T12:25:09.153Z,0.90
2018-09-24T12:27:47.612Z,1.27
2018-09-24T12:30:20.946Z,1.10
2018-09-24T12:32:54.981Z,1.20
2018-09-24T12:35:28.078Z,1.10
2018-09-24T12:38:01.105Z,0.90
2018-09-24T12:40:35.762Z,1.20
2018-09-24T12:43:08.922Z,1.03
2018-09-24T12:45:43.606Z,1.20
2018-09-24T12:48:16.764Z,1.17
2018-09-24T12:50:57.253Z,0.80
2018-09-24T12:53:30.593Z,1.60
2018-09-24T12:56:03.942Z,0.93
2018-09-24T12:58:37.064Z,2.03
2018-09-24T13:01:10.455Z,1.60
2018-09-24T13:03:43.708Z,1.03
2018-09-24T13:06:18.040Z,0.90
2018-09-24T13:08:52.215Z,0.80
2018-09-24T13:11:28.375Z,0.90
2018-09-24T13:14:01.913Z,0.87
2018-09-24T13:16:37.724Z,1.10
2018-09-24T13:19:11.264Z,0.90
2018-09-24T13:21:46.619Z,1.00
2018-09-24T13:24:19.726Z,1.00
2018-09-24T13:26:52.988Z,1.00
2018-09-24T13:29:26.781Z,1.13
2018-09-24T13:32:01.584Z,0.70
2018-09-24T13:34:35.358Z,0.60
2018-09-24T13:37:08.710Z,1.03
2018-09-24T13:39:44.057Z,0.90
2018-09-24T13:42:17.222Z,1.10
2018-09-24T13:44:50.706Z,0.70
2018-09-24T13:47:23.960Z,1.20
2018-09-24T13:49:58.477Z,0.90
2018-09-24T13:52:31.409Z,1.10
2018-09-24T13:55:04.863Z,0.77
2018-09-24T13:57:38.227Z,0.50
2018-09-24T14:00:12.308Z,0.73
2018-09-24T14:02:45.816Z,0.83
2018-09-24T14:05:19.469Z,0.77
2018-09-24T14:07:53.389Z,0.80
2018-09-24T14:10:27.252Z,0.80
2018-09-24T14:13:00.734Z,1.03
2018-09-24T14:15:34.231Z,1.23
2018-09-24T14:18:07.653Z,0.80
2018-09-24T14:20:43.948Z,0.80
2018-09-24T14:23:18.144Z,0.70
2018-09-24T14:25:55.400Z,0.73
2018-09-24T14:28:28.648Z,1.00
2018-09-24T14:31:03.575Z,0.90
2018-09-24T14:33:36.797Z,0.53
2018-09-24T14:36:12.979Z,0.70
2018-09-24T14:38:46.555Z,0.70
2018-09-24T14:41:19.840Z,0.80
2018-09-24T14:43:53.816Z,0.53
2018-09-24T14:46:27.406Z,0.80
2018-09-24T14:49:00.950Z,1.17
2018-09-24T14:51:34.564Z,0.63
2018-09-24T14:54:07.958Z,0.80
2018-09-24T14:56:41.874Z,0.70
2018-09-24T14:59:15.216Z,0.70
2018-09-24T15:01:49.250Z,0.70
2018-09-24T15:04:22.524Z,1.07
2018-09-24T15:06:56.330Z,0.70
2018-09-24T15:09:29.767Z,0.87
2018-09-24T15:12:02.864Z,0.80
2018-09-24T15:14:52.028Z,2.10
2018-09-24T15:17:36.975Z,1.17
2018-09-24T15:20:23.612Z,0.83
2018-09-24T15:23:04.393Z,0.53
2018-09-24T15:25:49.098Z,0.90
2018-09-24T15:28:22.190Z,0.87
2018-09-24T15:30:55.188Z,0.77
2018-09-24T15:33:39.723Z,0.80
2018-09-24T15:36:25.038Z,0.60
2018-09-24T15:38:58.303Z,0.90
2018-09-24T15:41:31.450Z,0.67
2018-09-24T15:44:05.809Z,0.50
2018-09-24T15:46:39.308Z,0.87
2018-09-24T15:49:12.437Z,0.90
2018-09-24T15:51:45.446Z,0.50
2018-09-24T15:54:18.494Z,0.80
2018-09-24T15:56:57.012Z,0.53
2018-09-24T15:59:30.264Z,0.93
2018-09-24T16:02:03.848Z,0.50
2018-09-24T16:04:36.888Z,0.90
2018-09-24T16:07:10.055Z,1.00
2018-09-24T16:09:44.491Z,0.60
2018-09-24T16:12:17.677Z,0.77
2018-09-24T16:14:50.987Z,1.20
2018-09-24T16:17:24.320Z,1.60
2018-09-24T16:19:57.667Z,2.17
2018-09-24T16:22:30.797Z,1.00
2018-09-24T16:25:03.780Z,1.90
2018-09-24T16:27:36.915Z,2.70
2018-09-24T16:30:15.241Z,2.10
2018-09-24T16:32:52.259Z,1.13
2018-09-24T16:35:25.951Z,0.60
2018-09-24T16:38:02.632Z,0.60
2018-09-24T16:40:37.302Z,2.13
2018-09-24T16:46:09.798Z,1.10
2018-09-24T16:48:52.122Z,0.50
2018-09-24T16:51:25.392Z,0.33
2018-09-24T16:53:58.708Z,0.60
2018-09-24T16:56:32.642Z,0.57
2018-09-24T16:59:06.997Z,0.70
2018-09-24T17:01:40.200Z,1.87
2018-09-24T17:04:13.980Z,0.40
2018-09-24T17:06:52.448Z,0.90
2018-09-24T17:33:29.304Z,1.30
2018-09-24T17:36:17.339Z,0.30
2018-09-24T17:38:50.363Z,0.50
2018-09-24T17:41:24.338Z,0.57
2018-09-24T17:43:57.328Z,0.80
2018-09-24T17:46:30.979Z,0.53
2018-09-24T17:49:03.823Z,0.77
2018-09-24T17:51:39.764Z,0.60
2018-09-24T17:54:12.735Z,0.77
2018-09-24T17:56:46.995Z,1.83
2018-09-24T17:59:19.980Z,1.10
2018-09-24T18:01:55.277Z,1.20
2018-09-24T18:04:28.920Z,0.90
2018-09-24T18:07:02.991Z,1.43
2018-09-24T18:09:38.936Z,2.53
2018-09-24T18:12:11.943Z,4.27
2018-09-24T18:14:45.906Z,5.23
2018-09-24T18:17:19.507Z,3.93
2018-09-24T18:19:52.429Z,1.80
2018-09-24T18:22:25.532Z,4.53
2018-09-24T18:24:58.472Z,5.50
2018-09-24T18:27:31.588Z,0.77
2018-09-24T18:30:06.167Z,0.63
2018-09-24T18:32:39.127Z,0.60
2018-09-24T18:35:12.246Z,0.67
2018-09-24T18:37:45.114Z,0.63
2018-09-24T18:40:18.024Z,1.00
2018-09-24T18:42:51.263Z,0.63
2018-09-24T18:45:24.904Z,0.70
2018-09-24T18:47:57.723Z,0.93
2018-09-24T18:50:30.641Z,0.80
2018-09-24T18:53:03.596Z,0.80
2018-09-24T18:55:36.647Z,0.70
2018-09-24T18:58:09.666Z,1.30
2018-09-24T19:00:42.673Z,1.00
2018-09-24T19:03:15.712Z,0.83
2018-09-24T19:08:52.397Z,0.80
2018-09-24T19:11:27.957Z,0.67
2018-09-24T19:13:58.477Z,0.70
2018-09-24T19:16:32.407Z,0.97
2018-09-24T19:19:06.568Z,0.70
2018-09-24T19:21:39.606Z,0.60
2018-09-24T19:24:12.788Z,0.80
2018-09-24T19:26:45.825Z,1.33
2018-09-24T19:29:19.864Z,0.73
2018-09-24T19:31:55.100Z,0.97
2018-09-24T19:34:33.664Z,1.00
2018-09-24T19:37:15.448Z,0.80
2018-09-24T19:39:52.958Z,0.67
2018-09-24T19:42:29.455Z,0.50
2018-09-24T19:45:07.807Z,0.50
2018-09-24T19:47:55.393Z,0.70
2018-09-24T19:50:44.783Z,0.40
2018-09-24T19:53:22.588Z,0.67
2018-09-24T19:55:58.089Z,0.60
2018-09-24T19:58:36.486Z,0.43
2018-09-24T20:01:16.241Z,0.70
2018-09-24T20:03:55.517Z,1.00
2018-09-24T20:06:32.020Z,1.00
2018-09-24T20:09:05.756Z,1.00
2018-09-24T20:11:39.118Z,0.87
2018-09-24T20:14:12.640Z,0.90
2018-09-24T20:16:45.890Z,0.80
2018-09-24T20:19:19.291Z,0.80
2018-09-24T20:21:52.608Z,0.70
2018-09-24T20:24:25.899Z,1.50
2018-09-24T20:26:59.119Z,1.10
2018-09-24T20:29:32.915Z,1.20
2018-09-24T20:32:06.221Z,1.30
2018-09-24T20:34:40.302Z,1.03
2018-09-24T20:37:13.275Z,0.87
2018-09-24T20:39:46.162Z,1.67
2018-09-24T20:42:21.395Z,1.20
2018-09-24T20:44:54.783Z,1.00
2018-09-24T20:47:28.031Z,0.73
2018-09-24T20:50:00.977Z,1.23
2018-09-24T20:52:34.272Z,0.70
2018-09-24T20:55:07.301Z,0.90
2018-09-24T20:57:41.855Z,0.80
2018-09-24T21:00:14.974Z,0.77
2018-09-24T21:02:48.812Z,0.97
2018-09-24T21:05:22.324Z,1.37
2018-09-24T21:07:55.446Z,0.90
2018-09-24T21:10:31.924Z,1.27
2018-09-24T21:13:05.132Z,0.77
2018-09-24T21:15:38.759Z,0.93
2018-09-24T21:18:12.623Z,1.37
2018-09-24T21:20:46.363Z,1.20
2018-09-24T21:23:19.507Z,0.90
2018-09-24T21:25:52.615Z,1.53
2018-09-24T21:28:26.214Z,1.70
2018-09-24T21:30:59.341Z,1.40
2018-09-24T21:33:33.170Z,1.63
2018-09-24T21:36:06.456Z,1.00
2018-09-24T21:38:40.523Z,1.63
2018-09-24T21:41:13.591Z,0.80
2018-09-24T21:43:46.992Z,0.97
2018-09-24T21:46:20.326Z,0.83
2018-09-24T21:48:53.320Z,1.60
2018-09-24T21:51:27.255Z,1.20
2018-09-24T21:54:01.069Z,1.10
2018-09-24T21:56:34.723Z,1.13
2018-09-24T21:59:07.687Z,1.20
2018-09-24T22:01:40.563Z,0.83
2018-09-24T22:04:13.610Z,1.07
2018-09-24T22:06:47.127Z,0.93
2018-09-24T22:09:20.181Z,1.13
2018-09-24T22:11:55.486Z,0.90
2018-09-24T22:14:28.415Z,0.90
2018-09-24T22:17:01.482Z,0.90
2018-09-24T22:19:34.410Z,0.97
2018-09-24T22:22:20.778Z,0.80
2018-09-24T22:24:53.806Z,0.70
2018-09-24T22:27:26.748Z,0.90
2018-09-24T22:29:59.664Z,1.47
2018-09-24T22:32:32.612Z,1.67
2018-09-24T22:35:05.604Z,1.50
2018-09-24T22:37:38.614Z,1.23
2018-09-24T22:40:11.814Z,1.00
2018-09-24T22:42:44.785Z,1.33
2018-09-24T22:45:17.737Z,0.73
2018-09-24T22:47:50.589Z,0.70
2018-09-24T22:50:23.984Z,0.83
2018-09-24T22:52:56.948Z,0.80
2018-09-24T22:55:29.952Z,0.90
2018-09-24T22:58:02.927Z,1.10
2018-09-24T23:00:36.141Z,1.07
2018-09-24T23:03:09.138Z,1.17
2018-09-24T23:05:42.129Z,1.20
2018-09-24T23:08:18.522Z,1.03
2018-09-24T23:10:52.439Z,0.90
2018-09-24T23:13:25.608Z,0.97
2018-09-24T23:15:59.612Z,0.90
2018-09-24T23:18:33.617Z,0.90
2018-09-24T23:21:06.810Z,1.20
2018-09-24T23:23:39.696Z,0.63
2018-09-24T23:26:12.989Z,0.87
2018-09-24T23:28:46.134Z,1.13
2018-09-24T23:31:20.953Z,0.77
2018-09-24T23:33:53.891Z,0.77
2018-09-24T23:36:26.825Z,0.70
2018-09-24T23:38:59.676Z,0.90
2018-09-24T23:41:32.611Z,1.07
2018-09-24T23:44:07.019Z,0.70
2018-09-24T23:46:40.134Z,0.90
2018-09-24T23:49:13.348Z,1.10
2018-09-24T23:51:46.654Z,1.10
2018-09-24T23:54:20.506Z,0.80
2018-09-24T23:56:54.392Z,0.80
2018-09-24T23:59:29.061Z,0.60
